Terminal Aerodrome Forecast
Issued by NWS

Home | Current Version | Previous Version | Text Only | Print | Product List | Glossary On
Versions: 1 2 3 4 5 6 7 8 9 10 11 12
000
FTPA31 PHFO 281120
TAFHKO
TAF
PHKO 281120Z 2812/2912 12005KT P6SM FEW025 SCT060
     FM282000 25008KT P6SM FEW025 BKN060
     FM290800 12005KT P6SM VCSH FEW025 BKN060=

USA.gov is the U.S. government's official web portal to all federal, state and local government web resources and services.